Portada
METAR-TAF:

METAR-TAF

Aeropuertos :

Caracas, Venezuela

Aeropuerto Internacional de Maiquetía Simón Bolívar

latitud: 10-36N, longitud: 066-59W, altitud: 43 m

Observación

El informe se hizo hace 42 minutos, a las 09:00 UTC
Viento calma
Temperatura 24°C
Humedad 89%
Presión 1008 hPa
Visibilidad 10 km o más
Escasas nubes a una altura de 1600 ft

METAR: SVMI 190900Z 00000KT 9999 FEW016 24/22 Q1008

Hora: 05:42 (09:42 UTC)

Pronóstico

El informe se hizo hace 5 horas y 42 minutos, a las 04:00 UTC
Pronóstico válido del 19 a las 06 UTC al 20 a las 06 UTC
Viento 5 kt del noreste
Visibilidad 10 km o más
Escasas nubes a una altura de 1600 ft
Evolucionando progresivamente
del 19 a las 06 UTC al 19 a las 10 UTC
Viento kt del norte
Nubes dispersas a una altura de 1600 ft

TAF: SVMI 190400Z 1906/2006 05005KT 9999 FEW016 TX33/19Z TN27/09Z BECMG 1906/1910 00000KT SCT016

Observaciones y pronósticos meteorológicos de más de 4000 aeropuertos (mensajes METAR y TAF).

Los puntos amarillos y rojos representan las estaciones disponibles.

Ponga el ratón en el punto deseado para ver el nombre de la estación.

Haga clic para ver las observaciones y los pronósticos meteorológicos.

Para cambiar el mapa : haga clic en los botones verdes con una cruz de color negro para hacer un zoom, en el botón verde con un guión para alejar o en las flechas verdes para mapas adyacentes.


METAR-TAF: